Time;durP1;ratioP1;P1;durP2;ratioP2;P2;SDS_P1;SDS_P2;PMS_P1;PMS_P2;Temp;Humidity;BMP_temperature;BMP_pressure;BME280_temperature;BME280_humidity;BME280_pressure;Samples;Min_cycle;Max_cycle;Signal;HPM_P1;HPM_P2
2022/04/27 00:14:14;;;;;;;;;;;16.70;85.60;;;;;;31507092;28;19926;-21
2022/04/27 00:29:15;;;;;;;;;;;16.60;85.10;;;;;;31505208;28;20011;-21
2022/04/27 00:44:18;;;;;;;;;;;16.60;85.00;;;;;;31484910;28;19920;-21
2022/04/27 00:59:19;;;;;;;;;;;16.50;84.70;;;;;;31449875;28;19931;-21
2022/04/27 01:14:20;;;;;;;;;;;16.50;84.30;;;;;;31500578;28;20445;-21
2022/04/27 01:29:25;;;;;;;;;;;16.40;83.80;;;;;;31480601;28;19924;-20
2022/04/27 01:44:26;;;;;;;;;;;16.40;83.60;;;;;;31479027;28;19920;-22
2022/04/27 01:59:29;;;;;;;;;;;16.40;83.70;;;;;;31496751;28;20321;-22
2022/04/27 02:14:30;;;;;;;;;;;16.40;83.60;;;;;;31495655;28;20374;-22
2022/04/27 02:29:31;;;;;;;;;;;16.30;83.30;;;;;;31493967;28;19943;-21
2022/04/27 02:44:33;;;;;;;;;;;16.30;82.90;;;;;;31475533;28;19920;-21
2022/04/27 02:59:34;;;;;;;;;;;16.30;82.50;;;;;;31496822;28;20373;-21
2022/04/27 03:14:35;;;;;;;;;;;16.30;82.00;;;;;;31513617;28;19928;-21
2022/04/27 03:29:36;;;;;;;;;;;16.20;82.00;;;;;;31512978;28;19943;-24
2022/04/27 03:44:38;;;;;;;;;;;16.20;82.10;;;;;;31510646;28;20020;-24
2022/04/27 03:59:39;;;;;;;;;;;16.20;82.00;;;;;;31508795;28;20278;-22
2022/04/27 04:14:40;;;;;;;;;;;16.20;82.00;;;;;;31507409;28;19960;-21
2022/04/27 04:29:41;;;;;;;;;;;16.20;81.80;;;;;;31494927;28;19930;-20
2022/04/27 04:44:42;;;;;;;;;;;16.20;82.10;;;;;;31488510;28;19924;-21
2022/04/27 04:59:43;;;;;;;;;;;16.20;82.70;;;;;;31498659;28;20338;-21
2022/04/27 05:13:46;;;;;;;;;;;16.20;83.00;;;;;;3203575;27;19919;-22
2022/04/27 05:15:17;;;;;;;;;;;16.20;83.70;;;;;;3184599;27;19962;-22
2022/04/27 05:16:48;;;;;;;;;;;16.30;83.30;;;;;;3182746;28;20414;-22
2022/04/27 05:18:19;;;;;;;;;;;16.30;83.30;;;;;;3184798;27;20358;-23
2022/04/27 05:19:51;;;;;;;;;;;16.30;83.30;;;;;;3180328;28;19924;-23
2022/04/27 05:21:22;;;;;;;;;;;16.30;83.20;;;;;;3183403;27;19924;-26
2022/04/27 05:22:53;;;;;;;;;;;16.30;83.20;;;;;;3146607;28;284249;-22
2022/04/27 05:24:24;;;;;;;;;;;16.30;83.10;;;;;;3158924;28;19924;-22
2022/04/27 05:25:55;;;;;;;;;;;16.30;83.10;;;;;;3153781;28;19931;-22
2022/04/27 05:27:26;;;;;;;;;;;16.30;83.10;;;;;;3152274;28;19924;-22
2022/04/27 05:32:40;;;;;;;;;;;16.60;82.50;;;;;;3148484;28;20312;-22
2022/04/27 05:34:11;;;;;;;;;;;16.60;82.20;;;;;;3149502;28;20010;-23
2022/04/27 05:35:42;;;;;;;;;;;16.70;82.00;;;;;;3146905;28;20385;-24
2022/04/27 05:37:12;;;;;;;;;;;16.80;81.80;;;;;;3150660;28;19936;-22
2022/04/27 05:38:43;;;;;;;;;;;16.90;81.60;;;;;;3154242;28;19975;-21
2022/04/27 05:40:14;;;;;;;;;;;16.90;81.50;;;;;;3152931;28;19933;-22
2022/04/27 05:41:45;;;;;;;;;;;17.00;81.50;;;;;;3147783;28;19924;-22
2022/04/27 05:43:16;;;;;;;;;;;17.00;81.50;;;;;;3156783;28;19924;-22
2022/04/27 05:44:47;;;;;;;;;;;17.00;81.50;;;;;;3155417;28;19932;-22
2022/04/27 05:46:18;;;;;;;;;;;17.00;81.60;;;;;;3153010;28;19947;-24
2022/04/27 05:47:49;;;;;;;;;;;17.00;81.60;;;;;;3159302;28;19924;-22
2022/04/27 05:49:20;;;;;;;;;;;17.10;81.60;;;;;;3154806;28;19950;-22
2022/04/27 05:50:51;;;;;;;;;;;17.20;81.60;;;;;;3155280;28;19932;-23
2022/04/27 05:52:22;;;;;;;;;;;17.20;81.40;;;;;;3158664;28;19981;-24
2022/04/27 05:53:53;;;;;;;;;;;17.30;81.30;;;;;;3159130;28;19928;-22
2022/04/27 05:55:24;;;;;;;;;;;17.40;81.20;;;;;;3159477;28;19925;-23
2022/04/27 05:56:55;;;;;;;;;;;17.40;81.10;;;;;;3159143;28;20005;-23
2022/04/27 05:58:26;;;;;;;;;;;17.50;80.90;;;;;;3151892;28;19981;-22
2022/04/27 05:59:57;;;;;;;;;;;17.50;80.90;;;;;;3146020;28;19994;-21
2022/04/27 06:01:28;;;;;;;;;;;17.50;80.80;;;;;;3145674;28;19931;-22
2022/04/27 06:03:00;;;;;;;;;;;17.50;80.90;;;;;;3144905;28;19992;-22
2022/04/27 06:04:31;;;;;;;;;;;17.50;80.90;;;;;;3145296;28;20027;-22
2022/04/27 06:06:03;;;;;;;;;;;17.50;80.90;;;;;;3145242;28;20390;-23
2022/04/27 06:07:35;;;;;;;;;;;17.50;80.90;;;;;;3145595;28;19929;-22
2022/04/27 06:09:09;;;;;;;;;;;17.50;81.00;;;;;;3145709;28;19989;-22
2022/04/27 06:10:39;;;;;;;;;;;17.50;81.00;;;;;;3145298;28;19925;-22
2022/04/27 06:12:10;;;;;;;;;;;17.50;81.00;;;;;;3145236;28;19928;-22
2022/04/27 06:13:41;;;;;;;;;;;17.50;81.00;;;;;;3145574;28;19929;-21
2022/04/27 06:15:12;;;;;;;;;;;17.50;80.90;;;;;;3145413;28;19931;-21
2022/04/27 06:16:43;;;;;;;;;;;17.50;81.00;;;;;;3154485;28;19932;-21
2022/04/27 06:18:14;;;;;;;;;;;17.50;80.90;;;;;;3149092;28;19931;-21
2022/04/27 06:19:45;;;;;;;;;;;17.50;80.80;;;;;;3145267;28;19925;-22
2022/04/27 06:21:17;;;;;;;;;;;17.60;80.70;;;;;;3145315;28;20382;-22
2022/04/27 06:22:48;;;;;;;;;;;17.60;80.50;;;;;;3147561;28;19979;-22
2022/04/27 06:24:19;;;;;;;;;;;17.60;80.30;;;;;;3149382;28;19925;-22
2022/04/27 06:25:50;;;;;;;;;;;17.70;80.10;;;;;;3148035;28;19924;-25
2022/04/27 06:27:21;;;;;;;;;;;17.70;80.00;;;;;;3150530;28;20362;-23
2022/04/27 06:28:52;;;;;;;;;;;17.70;79.80;;;;;;3150112;28;19931;-25
2022/04/27 06:30:24;;;;;;;;;;;17.70;79.70;;;;;;3144597;28;19991;-22
2022/04/27 06:31:55;;;;;;;;;;;17.70;79.50;;;;;;3148052;28;19932;-23
2022/04/27 06:33:26;;;;;;;;;;;17.80;79.50;;;;;;3144629;28;19924;-25
2022/04/27 06:35:00;;;;;;;;;;;17.70;79.30;;;;;;3138957;28;20282;-23
2022/04/27 06:36:31;;;;;;;;;;;17.80;79.20;;;;;;3143724;28;19924;-22
2022/04/27 06:38:02;;;;;;;;;;;17.80;79.10;;;;;;3149141;28;19924;-22
2022/04/27 06:39:33;;;;;;;;;;;17.80;79.00;;;;;;3124322;28;19944;-23
2022/04/27 06:41:03;;;;;;;;;;;17.90;79.00;;;;;;3141473;28;19935;-23
2022/04/27 06:42:35;;;;;;;;;;;17.80;78.90;;;;;;3151237;28;20406;-22
2022/04/27 06:44:06;;;;;;;;;;;17.90;78.90;;;;;;3143788;28;19924;-25
2022/04/27 06:45:37;;;;;;;;;;;17.90;78.90;;;;;;3142322;28;20015;-22
2022/04/27 06:47:08;;;;;;;;;;;17.90;78.90;;;;;;3139293;28;19933;-23
2022/04/27 06:48:39;;;;;;;;;;;17.90;78.90;;;;;;3143304;28;19937;-26
2022/04/27 06:50:12;;;;;;;;;;;17.80;78.80;;;;;;3142956;28;20370;-22
2022/04/27 06:51:43;;;;;;;;;;;17.80;78.90;;;;;;3143354;28;20445;-22
2022/04/27 06:53:13;;;;;;;;;;;17.80;79.10;;;;;;3141876;28;19982;-23
2022/04/27 06:54:44;;;;;;;;;;;17.80;79.20;;;;;;3140409;28;19933;-22
2022/04/27 06:56:16;;;;;;;;;;;17.80;79.10;;;;;;3143118;28;20428;-23
2022/04/27 06:57:47;;;;;;;;;;;17.70;79.10;;;;;;3141885;28;19928;-23
2022/04/27 06:59:18;;;;;;;;;;;17.70;79.10;;;;;;3142351;28;19924;-22
2022/04/27 07:00:48;;;;;;;;;;;17.70;79.00;;;;;;3142877;28;19925;-23
2022/04/27 07:02:20;;;;;;;;;;;17.70;78.80;;;;;;3142750;28;20301;-22
2022/04/27 07:03:54;;;;;;;;;;;17.70;78.70;;;;;;3136442;28;19975;-22
2022/04/27 07:05:26;;;;;;;;;;;17.70;78.60;;;;;;3139654;28;19929;-22
2022/04/27 07:06:57;;;;;;;;;;;17.70;78.50;;;;;;3141765;28;19966;-22
2022/04/27 07:08:30;;;;;;;;;;;17.70;78.30;;;;;;3141784;28;20320;-22
2022/04/27 07:10:01;;;;;;;;;;;17.70;78.20;;;;;;3139473;28;20035;-22
2022/04/27 07:11:32;;;;;;;;;;;17.70;78.10;;;;;;3142930;28;19925;-25
2022/04/27 07:13:04;;;;;;;;;;;17.60;77.90;;;;;;3137831;28;19932;-22
2022/04/27 07:14:35;;;;;;;;;;;17.70;77.90;;;;;;3141095;28;19928;-22
2022/04/27 07:16:06;;;;;;;;;;;17.70;77.80;;;;;;3143698;28;19982;-23
2022/04/27 07:17:37;;;;;;;;;;;17.70;77.70;;;;;;3140533;28;19932;-23
2022/04/27 07:19:08;;;;;;;;;;;17.70;77.70;;;;;;3148924;28;20007;-22
2022/04/27 07:20:39;;;;;;;;;;;17.70;77.70;;;;;;3146965;28;19928;-23
2022/04/27 07:22:11;;;;;;;;;;;17.70;77.70;;;;;;3142603;28;19925;-22
2022/04/27 07:23:42;;;;;;;;;;;17.70;77.60;;;;;;3141653;28;20340;-21
2022/04/27 07:25:14;;;;;;;;;;;17.70;77.70;;;;;;3136178;28;19952;-22
2022/04/27 07:26:45;;;;;;;;;;;17.70;77.80;;;;;;3136206;28;20336;-22
2022/04/27 07:28:16;;;;;;;;;;;17.70;77.80;;;;;;3136334;28;20374;-22
2022/04/27 07:29:47;;;;;;;;;;;17.70;77.90;;;;;;3135317;28;20023;-22
2022/04/27 07:31:17;;;;;;;;;;;17.70;78.00;;;;;;3136025;28;20516;-22
2022/04/27 07:32:49;;;;;;;;;;;17.70;77.90;;;;;;3136257;28;19928;-21
2022/04/27 07:34:20;;;;;;;;;;;17.70;77.80;;;;;;3136567;28;19964;-22
2022/04/27 07:35:50;;;;;;;;;;;17.60;77.90;;;;;;3135522;28;19948;-23
2022/04/27 07:37:21;;;;;;;;;;;17.60;77.90;;;;;;3135839;28;19979;-21
2022/04/27 07:38:52;;;;;;;;;;;17.70;77.70;;;;;;3136419;28;20019;-25
2022/04/27 07:40:23;;;;;;;;;;;17.80;77.50;;;;;;3136127;28;19929;-23
2022/04/27 07:41:54;;;;;;;;;;;17.80;77.20;;;;;;3136084;28;19924;-22
2022/04/27 07:43:24;;;;;;;;;;;17.90;76.90;;;;;;3136123;28;20371;-24
2022/04/27 07:44:55;;;;;;;;;;;17.90;76.90;;;;;;3143420;28;19925;-23
2022/04/27 07:46:26;;;;;;;;;;;17.90;76.60;;;;;;3144906;28;20446;-26
2022/04/27 07:47:57;;;;;;;;;;;17.90;76.50;;;;;;3141168;28;19924;-23
2022/04/27 07:49:28;;;;;;;;;;;18.00;76.40;;;;;;3137582;28;19931;-22
2022/04/27 07:50:59;;;;;;;;;;;18.00;76.30;;;;;;3148968;28;19993;-23
2022/04/27 07:52:30;;;;;;;;;;;18.00;76.20;;;;;;3139996;28;19929;-22
2022/04/27 07:54:01;;;;;;;;;;;18.00;76.10;;;;;;3136390;28;19928;-22
2022/04/27 07:55:32;;;;;;;;;;;18.00;76.00;;;;;;3135360;28;19928;-22
2022/04/27 07:57:03;;;;;;;;;;;18.00;75.90;;;;;;3136038;28;19975;-23
2022/04/27 07:58:34;;;;;;;;;;;18.00;75.70;;;;;;3136953;28;19931;-22
2022/04/27 08:00:06;;;;;;;;;;;18.00;75.70;;;;;;3136436;28;20378;-22
2022/04/27 08:01:37;;;;;;;;;;;18.00;75.60;;;;;;3140193;28;19963;-23
2022/04/27 08:03:08;;;;;;;;;;;17.90;75.70;;;;;;3137005;28;19925;-22
2022/04/27 08:04:39;;;;;;;;;;;17.90;75.70;;;;;;3137151;28;19956;-23
2022/04/27 08:06:09;;;;;;;;;;;18.00;75.60;;;;;;3137167;28;19944;-22
2022/04/27 08:07:41;;;;;;;;;;;17.90;75.70;;;;;;3137007;28;20030;-22
2022/04/27 08:09:12;;;;;;;;;;;17.90;77.60;;;;;;3135657;28;20017;-23
2022/04/27 08:10:43;;;;;;;;;;;18.10;76.00;;;;;;3140156;28;20293;-22
2022/04/27 08:12:14;;;;;;;;;;;18.10;75.10;;;;;;3139943;28;19932;-23
2022/04/27 08:13:45;;;;;;;;;;;18.00;75.40;;;;;;3135925;28;20412;-21
2022/04/27 08:15:16;;;;;;;;;;;18.00;75.40;;;;;;3136057;28;19925;-22
2022/04/27 08:16:48;;;;;;;;;;;17.90;75.50;;;;;;3136554;28;20444;-22
2022/04/27 08:18:20;;;;;;;;;;;17.90;75.60;;;;;;3137422;28;20417;-22
2022/04/27 08:21:13;;;;;;;;;;;17.90;75.50;;;;;;3136975;28;20378;-22
2022/04/27 08:21:43;;;;;;;;;;;17.90;75.60;;;;;;3136994;28;20007;-22
2022/04/27 08:23:14;;;;;;;;;;;17.90;75.60;;;;;;3137008;28;20003;-23
2022/04/27 08:24:46;;;;;;;;;;;17.90;75.40;;;;;;3137038;28;19925;-22
2022/04/27 08:26:17;;;;;;;;;;;18.00;75.10;;;;;;3137425;28;19924;-23
2022/04/27 08:27:48;;;;;;;;;;;18.10;74.90;;;;;;3136960;28;19932;-24
2022/04/27 08:29:19;;;;;;;;;;;18.10;74.60;;;;;;3135969;28;19925;-22
2022/04/27 08:30:50;;;;;;;;;;;18.10;74.40;;;;;;3137155;28;19925;-23
2022/04/27 08:32:21;;;;;;;;;;;18.20;74.30;;;;;;3136714;28;20011;-22
2022/04/27 08:33:51;;;;;;;;;;;18.20;74.30;;;;;;3136878;28;19931;-22
2022/04/27 08:35:22;;;;;;;;;;;18.20;74.20;;;;;;3136743;28;20009;-22
2022/04/27 08:36:53;;;;;;;;;;;18.10;74.20;;;;;;3137058;28;19929;-22
2022/04/27 08:38:24;;;;;;;;;;;18.10;74.20;;;;;;3136700;28;19948;-21
2022/04/27 08:39:55;;;;;;;;;;;18.10;74.30;;;;;;3136831;28;19960;-22
2022/04/27 08:41:26;;;;;;;;;;;18.00;74.40;;;;;;3137029;28;19947;-22
2022/04/27 08:42:57;;;;;;;;;;;18.00;74.50;;;;;;3136924;28;19925;-22
2022/04/27 08:44:28;;;;;;;;;;;18.00;74.70;;;;;;3136779;28;19967;-22
2022/04/27 08:46:01;;;;;;;;;;;18.10;75.80;;;;;;3136709;28;19925;-22
2022/04/27 08:47:32;;;;;;;;;;;18.30;75.80;;;;;;3136071;28;19993;-22
2022/04/27 08:49:02;;;;;;;;;;;18.50;75.10;;;;;;3131704;28;20003;-23
2022/04/27 08:50:33;;;;;;;;;;;18.70;74.60;;;;;;3136482;28;19961;-23
2022/04/27 08:52:05;;;;;;;;;;;18.80;74.00;;;;;;3136574;28;19997;-22
2022/04/27 08:53:36;;;;;;;;;;;18.70;73.60;;;;;;3136700;28;19994;-25
2022/04/27 08:55:07;;;;;;;;;;;18.60;73.60;;;;;;3135635;28;19924;-23
2022/04/27 08:56:38;;;;;;;;;;;18.40;73.90;;;;;;3136426;28;20012;-22
2022/04/27 08:58:15;;;;;;;;;;;18.40;75.20;;;;;;3136687;28;19931;-22
2022/04/27 08:59:46;;;;;;;;;;;18.50;74.80;;;;;;3136875;28;19925;-21
2022/04/27 09:01:17;;;;;;;;;;;18.60;73.70;;;;;;3136467;28;20378;-22
2022/04/27 09:02:53;;;;;;;;;;;18.60;73.60;;;;;;3123376;28;19925;-22
2022/04/27 09:04:23;;;;;;;;;;;18.60;74.40;;;;;;3133359;28;20389;-21
2022/04/27 09:06:04;;;;;;;;;;;18.60;73.70;;;;;;3137072;28;20023;-21
2022/04/27 09:07:41;;;;;;;;;;;18.60;74.00;;;;;;3135750;28;19987;-21
2022/04/27 09:09:30;;;;;;;;;;;18.60;74.00;;;;;;3136347;28;19931;-21
2022/04/27 09:11:11;;;;;;;;;;;18.60;74.90;;;;;;3135840;28;19932;-22
2022/04/27 09:12:50;;;;;;;;;;;18.80;74.60;;;;;;3136123;28;19991;-23
2022/04/27 09:14:20;;;;;;;;;;;18.90;73.70;;;;;;3137136;28;19925;-24
2022/04/27 09:15:58;;;;;;;;;;;18.80;75.80;;;;;;3135693;28;19925;-22
2022/04/27 09:21:08;;;;;;;;;;;18.70;73.80;;;;;;3136396;28;20368;-22
2022/04/27 09:22:46;;;;;;;;;;;18.70;73.70;;;;;;3136723;28;20003;-26
2022/04/27 09:24:16;;;;;;;;;;;18.70;74.10;;;;;;3136341;28;19931;-21
2022/04/27 09:25:48;;;;;;;;;;;18.70;73.70;;;;;;3136353;28;20354;-24
2022/04/27 09:27:19;;;;;;;;;;;18.70;73.70;;;;;;3136283;28;19932;-22
2022/04/27 09:28:50;;;;;;;;;;;18.70;73.90;;;;;;3136502;28;20013;-22
2022/04/27 09:30:25;;;;;;;;;;;18.70;73.90;;;;;;3136460;28;20325;-22
2022/04/27 09:31:56;;;;;;;;;;;18.70;73.80;;;;;;3136622;28;19967;-24
2022/04/27 09:33:30;;;;;;;;;;;18.70;74.40;;;;;;3136477;28;19925;-24
2022/04/27 09:35:03;;;;;;;;;;;18.80;73.70;;;;;;3136420;28;19925;-22
2022/04/27 09:36:34;;;;;;;;;;;18.80;73.60;;;;;;3136554;28;20014;-23
2022/04/27 09:38:14;;;;;;;;;;;18.80;77.30;;;;;;3136465;28;19928;-22
2022/04/27 09:39:46;;;;;;;;;;;18.80;75.00;;;;;;3136456;28;19925;-23
2022/04/27 09:41:35;;;;;;;;;;;18.90;73.60;;;;;;3136651;28;19987;-26
2022/04/27 09:43:09;;;;;;;;;;;18.80;73.60;;;;;;3136512;28;20028;-22
2022/04/27 09:44:40;;;;;;;;;;;18.90;74.20;;;;;;3136169;28;19963;-23
2022/04/27 09:46:28;;;;;;;;;;;18.80;73.70;;;;;;3136329;28;20333;-23
2022/04/27 09:48:03;;;;;;;;;;;18.80;76.20;;;;;;3136041;28;19955;-23
2022/04/27 09:49:36;;;;;;;;;;;18.80;74.30;;;;;;3132085;28;20070;-22
2022/04/27 09:51:12;;;;;;;;;;;18.80;73.50;;;;;;3136189;28;20374;-22
2022/04/27 09:52:44;;;;;;;;;;;18.80;73.40;;;;;;3136014;28;19928;-22
2022/04/27 09:54:16;;;;;;;;;;;18.80;73.50;;;;;;3136952;28;20011;-22
2022/04/27 09:55:48;;;;;;;;;;;18.70;73.70;;;;;;3136415;28;20023;-25
2022/04/27 09:57:19;;;;;;;;;;;18.70;74.00;;;;;;3136224;28;19924;-22
2022/04/27 09:58:50;;;;;;;;;;;18.70;73.40;;;;;;3135698;28;20318;-22
2022/04/27 10:00:22;;;;;;;;;;;18.70;73.50;;;;;;3133195;28;19925;-22
2022/04/27 10:02:09;;;;;;;;;;;18.70;73.50;;;;;;3133769;28;19979;-23
2022/04/27 10:03:40;;;;;;;;;;;18.70;73.40;;;;;;3138612;28;19931;-22
2022/04/27 10:05:11;;;;;;;;;;;18.70;73.30;;;;;;3137751;28;19925;-22
2022/04/27 10:06:42;;;;;;;;;;;18.70;73.40;;;;;;3138569;28;20328;-22
2022/04/27 10:08:13;;;;;;;;;;;18.70;73.90;;;;;;3138352;28;19925;-23
2022/04/27 10:09:44;;;;;;;;;;;18.70;73.20;;;;;;3138476;28;20027;-23
2022/04/27 10:11:14;;;;;;;;;;;18.70;73.10;;;;;;3137626;28;19929;-24
2022/04/27 10:12:46;;;;;;;;;;;18.70;73.30;;;;;;3133465;28;19928;-25
2022/04/27 10:14:17;;;;;;;;;;;18.70;73.90;;;;;;3133504;28;19924;-23
2022/04/27 10:15:48;;;;;;;;;;;18.70;75.00;;;;;;3138132;28;19924;-23
2022/04/27 10:17:18;;;;;;;;;;;18.80;74.80;;;;;;3137665;28;19924;-22
2022/04/27 10:18:50;;;;;;;;;;;18.90;73.40;;;;;;3138619;28;19940;-22
2022/04/27 10:20:28;;;;;;;;;;;18.90;76.90;;;;;;3138394;28;19925;-22
2022/04/27 10:22:00;;;;;;;;;;;19.00;76.60;;;;;;3138522;28;20020;-22
2022/04/27 10:23:34;;;;;;;;;;;18.90;73.00;;;;;;3138604;28;19931;-23
2022/04/27 10:25:06;;;;;;;;;;;18.90;73.10;;;;;;3138557;28;20337;-22
2022/04/27 10:26:37;;;;;;;;;;;18.90;72.80;;;;;;3138274;28;19925;-22
2022/04/27 10:28:18;;;;;;;;;;;18.90;73.00;;;;;;3138164;28;19924;-23
2022/04/27 10:29:52;;;;;;;;;;;19.00;83.40;;;;;;3138266;28;19924;-27
2022/04/27 10:31:48;;;;;;;;;;;19.10;76.30;;;;;;3137882;28;19972;-22
2022/04/27 10:33:37;;;;;;;;;;;19.00;73.60;;;;;;3136626;28;20015;-23
2022/04/27 10:35:22;;;;;;;;;;;18.90;73.10;;;;;;3137707;28;19932;-23
2022/04/27 10:36:55;;;;;;;;;;;18.90;73.00;;;;;;3138459;28;19929;-22
2022/04/27 10:38:26;;;;;;;;;;;18.90;73.20;;;;;;3137279;28;19960;-22
2022/04/27 10:39:56;;;;;;;;;;;18.80;73.10;;;;;;3138159;28;19986;-22
2022/04/27 10:41:27;;;;;;;;;;;18.80;73.10;;;;;;3137218;28;19925;-21
2022/04/27 10:43:07;;;;;;;;;;;18.80;73.90;;;;;;3137750;28;19932;-22
2022/04/27 10:44:47;;;;;;;;;;;18.80;73.60;;;;;;3137936;28;19991;-22
2022/04/27 10:46:41;;;;;;;;;;;18.80;73.30;;;;;;3138519;28;19932;-21
2022/04/27 10:48:27;;;;;;;;;;;18.80;73.40;;;;;;3138174;28;19925;-22
2022/04/27 10:50:10;;;;;;;;;;;18.90;74.10;;;;;;3138127;28;20023;-22
2022/04/27 10:52:00;;;;;;;;;;;18.90;74.40;;;;;;3138214;28;19925;-21
2022/04/27 10:53:41;;;;;;;;;;;18.80;73.70;;;;;;3137991;28;19932;-22
2022/04/27 10:55:30;;;;;;;;;;;18.80;73.50;;;;;;3137162;28;19966;-23
2022/04/27 10:57:17;;;;;;;;;;;18.80;73.80;;;;;;3137906;28;19931;-22
2022/04/27 10:58:48;;;;;;;;;;;18.70;73.80;;;;;;3137401;28;20267;-24
2022/04/27 11:00:19;;;;;;;;;;;18.70;73.90;;;;;;3137598;28;19999;-22
2022/04/27 11:01:51;;;;;;;;;;;18.70;74.00;;;;;;3137233;28;20353;-22
2022/04/27 11:03:22;;;;;;;;;;;18.70;74.10;;;;;;3137611;28;19928;-23
2022/04/27 11:04:53;;;;;;;;;;;18.70;74.20;;;;;;3137316;28;19929;-22
2022/04/27 11:06:24;;;;;;;;;;;18.70;74.50;;;;;;3137596;28;19925;-23
2022/04/27 11:07:56;;;;;;;;;;;18.70;74.60;;;;;;3137062;28;19925;-22
2022/04/27 11:09:43;;;;;;;;;;;18.80;74.50;;;;;;3137646;28;19931;-22
2022/04/27 11:11:15;;;;;;;;;;;18.80;74.40;;;;;;3137813;28;20393;-22
2022/04/27 11:12:48;;;;;;;;;;;18.80;79.70;;;;;;3137320;28;19925;-22
2022/04/27 11:14:20;;;;;;;;;;;18.90;75.30;;;;;;3137067;28;20011;-22
2022/04/27 11:15:51;;;;;;;;;;;18.80;75.10;;;;;;3137675;28;19925;-21
2022/04/27 11:17:26;;;;;;;;;;;18.90;74.60;;;;;;3138327;28;19929;-22
2022/04/27 11:18:58;;;;;;;;;;;18.80;75.00;;;;;;3137981;28;19924;-21
2022/04/27 11:20:32;;;;;;;;;;;18.80;74.60;;;;;;3137677;28;19925;-21
2022/04/27 11:22:12;;;;;;;;;;;18.70;74.60;;;;;;3137644;28;19929;-22
2022/04/27 11:23:43;;;;;;;;;;;18.70;74.80;;;;;;3139595;28;20423;-22
2022/04/27 11:25:21;;;;;;;;;;;18.70;75.00;;;;;;3138187;28;19925;-22
2022/04/27 11:26:53;;;;;;;;;;;18.70;74.90;;;;;;3137625;28;19956;-22
2022/04/27 11:28:25;;;;;;;;;;;18.80;75.00;;;;;;3137856;28;19939;-22
2022/04/27 11:29:56;;;;;;;;;;;18.80;74.90;;;;;;3138165;28;19970;-22
2022/04/27 11:31:27;;;;;;;;;;;18.80;74.90;;;;;;3136557;28;19929;-25
2022/04/27 11:32:59;;;;;;;;;;;18.80;75.20;;;;;;3119998;28;19933;-22
2022/04/27 11:34:31;;;;;;;;;;;18.90;75.90;;;;;;3133105;28;20360;-22
2022/04/27 11:36:02;;;;;;;;;;;18.90;74.90;;;;;;3137340;28;19925;-23
2022/04/27 11:37:37;;;;;;;;;;;18.90;75.20;;;;;;3140576;28;20402;-22
2022/04/27 11:39:10;;;;;;;;;;;18.80;75.30;;;;;;3143882;28;20305;-22
2022/04/27 11:40:42;;;;;;;;;;;18.80;75.50;;;;;;3155583;28;20009;-22
2022/04/27 11:42:13;;;;;;;;;;;18.80;75.80;;;;;;3154519;28;20038;-22
2022/04/27 11:43:44;;;;;;;;;;;18.80;75.90;;;;;;3153622;28;19927;-22
2022/04/27 11:45:22;;;;;;;;;;;18.80;76.10;;;;;;3154627;28;19974;-22
2022/04/27 11:46:53;;;;;;;;;;;18.80;76.40;;;;;;3154346;28;19924;-25
2022/04/27 11:48:27;;;;;;;;;;;18.90;76.40;;;;;;3153888;28;19955;-23
2022/04/27 11:49:59;;;;;;;;;;;18.90;76.50;;;;;;3148284;28;19932;-23
2022/04/27 11:51:30;;;;;;;;;;;18.90;76.70;;;;;;3123777;28;19929;-25
2022/04/27 11:53:18;;;;;;;;;;;18.80;76.60;;;;;;3145750;28;19993;-22
2022/04/27 11:54:49;;;;;;;;;;;18.60;77.00;;;;;;3146880;28;19931;-21
2022/04/27 11:56:20;;;;;;;;;;;18.50;77.20;;;;;;3158639;28;19924;-22
2022/04/27 11:57:51;;;;;;;;;;;18.40;77.20;;;;;;3159103;28;19924;-22
2022/04/27 11:59:22;;;;;;;;;;;18.40;77.20;;;;;;3151824;28;20023;-22
2022/04/27 12:00:56;;;;;;;;;;;18.30;77.20;;;;;;3156545;28;20384;-21
2022/04/27 12:02:27;;;;;;;;;;;18.30;77.10;;;;;;3143613;28;19932;-23
2022/04/27 12:03:58;;;;;;;;;;;18.20;77.10;;;;;;3151902;28;19924;-22
2022/04/27 12:05:38;;;;;;;;;;;18.20;77.20;;;;;;3157616;28;19923;-22
2022/04/27 12:07:12;;;;;;;;;;;18.10;77.00;;;;;;3156025;28;20022;-22
2022/04/27 12:08:43;;;;;;;;;;;18.00;77.10;;;;;;3158594;28;19928;-22
2022/04/27 12:10:14;;;;;;;;;;;18.00;76.80;;;;;;3159102;28;19931;-21
2022/04/27 12:11:45;;;;;;;;;;;18.10;76.90;;;;;;3159443;28;19928;-21
2022/04/27 12:13:17;;;;;;;;;;;18.00;77.10;;;;;;3154789;28;20772;-21
2022/04/27 12:14:48;;;;;;;;;;;18.00;76.90;;;;;;3158766;28;19924;-21
2022/04/27 12:16:19;;;;;;;;;;;18.10;76.50;;;;;;3158859;28;20412;-22
2022/04/27 12:17:51;;;;;;;;;;;18.20;76.20;;;;;;3159049;28;19955;-21
2022/04/27 12:19:28;;;;;;;;;;;18.30;75.80;;;;;;3158740;28;19960;-21
2022/04/27 12:20:59;;;;;;;;;;;18.30;76.00;;;;;;3155901;28;19956;-22
2022/04/27 12:22:30;;;;;;;;;;;18.20;75.70;;;;;;3158265;28;19973;-22
2022/04/27 12:24:13;;;;;;;;;;;18.30;75.20;;;;;;3158888;28;20331;-22
2022/04/27 12:25:55;;;;;;;;;;;18.40;75.20;;;;;;3158753;28;19924;-22
2022/04/27 12:27:26;;;;;;;;;;;18.40;74.90;;;;;;3158496;28;19993;-22
2022/04/27 12:28:58;;;;;;;;;;;18.50;74.80;;;;;;3156194;28;20026;-22
2022/04/27 12:30:28;;;;;;;;;;;18.70;74.60;;;;;;3141415;28;19986;-23
2022/04/27 12:31:59;;;;;;;;;;;18.70;74.50;;;;;;3141043;28;19986;-22
2022/04/27 12:33:32;;;;;;;;;;;18.60;74.60;;;;;;3145342;28;19925;-22
2022/04/27 12:38:54;;;;;;;;;;;18.70;74.50;;;;;;3139580;28;19931;-21
2022/04/27 12:40:31;;;;;;;;;;;18.70;74.70;;;;;;3144992;28;20375;-21
2022/04/27 12:42:06;;;;;;;;;;;18.60;74.50;;;;;;3139894;28;19928;-22
2022/04/27 12:43:46;;;;;;;;;;;18.40;75.20;;;;;;3146278;28;20325;-21
2022/04/27 12:45:17;;;;;;;;;;;18.50;75.00;;;;;;3145996;28;19924;-21
2022/04/27 12:47:04;;;;;;;;;;;18.40;74.80;;;;;;3146263;28;19932;-21
2022/04/27 12:48:35;;;;;;;;;;;18.40;74.90;;;;;;3136283;28;19951;-22
2022/04/27 12:50:08;;;;;;;;;;;18.50;74.80;;;;;;3142064;28;19929;-22
2022/04/27 12:51:41;;;;;;;;;;;18.50;74.40;;;;;;3144983;28;20767;-22
2022/04/27 12:53:13;;;;;;;;;;;18.40;74.90;;;;;;3132168;28;20409;-22
2022/04/27 12:54:44;;;;;;;;;;;18.50;74.70;;;;;;3137845;28;19936;-24
2022/04/27 12:56:19;;;;;;;;;;;18.40;74.80;;;;;;3146142;28;20027;-23
2022/04/27 12:57:53;;;;;;;;;;;18.40;74.80;;;;;;3146300;28;20027;-23
2022/04/27 12:59:23;;;;;;;;;;;18.40;74.80;;;;;;3140652;28;19936;-23
2022/04/27 13:00:54;;;;;;;;;;;18.40;74.80;;;;;;3146170;28;19928;-22
2022/04/27 13:02:25;;;;;;;;;;;18.20;74.80;;;;;;3133682;28;19978;-22
2022/04/27 13:03:57;;;;;;;;;;;18.20;75.10;;;;;;3142084;28;19975;-23
2022/04/27 13:05:27;;;;;;;;;;;18.20;75.00;;;;;;3145845;28;20381;-22
2022/04/27 13:06:58;;;;;;;;;;;18.20;74.80;;;;;;3137651;28;20462;-21
2022/04/27 13:08:29;;;;;;;;;;;18.10;75.40;;;;;;3152078;28;19974;-22
2022/04/27 13:11:57;;;;;;;;;;;18.10;74.50;;;;;;3139145;28;19936;-23
2022/04/27 13:13:29;;;;;;;;;;;18.00;74.90;;;;;;3136513;28;19932;-23
2022/04/27 13:15:01;;;;;;;;;;;18.00;75.40;;;;;;3134962;28;20290;-25
2022/04/27 13:16:32;;;;;;;;;;;17.90;76.20;;;;;;3131016;28;19925;-28
2022/04/27 13:18:03;;;;;;;;;;;17.90;76.90;;;;;;3136521;28;19961;-26
2022/04/27 13:19:33;;;;;;;;;;;18.00;78.60;;;;;;3136502;28;20413;-25
2022/04/27 13:21:05;;;;;;;;;;;18.20;80.20;;;;;;3136266;28;19932;-25
2022/04/27 13:22:36;;;;;;;;;;;18.40;76.40;;;;;;3136459;28;19932;-28
2022/04/27 13:24:07;;;;;;;;;;;18.40;76.50;;;;;;3136422;28;19960;-25
2022/04/27 13:25:38;;;;;;;;;;;18.20;76.50;;;;;;3136431;28;19925;-23
2022/04/27 13:27:10;;;;;;;;;;;18.10;76.60;;;;;;3136325;28;19990;-27
2022/04/27 13:28:41;;;;;;;;;;;18.00;77.50;;;;;;3136457;28;20065;-26
2022/04/27 13:30:12;;;;;;;;;;;18.20;77.70;;;;;;3136414;28;20378;-25
2022/04/27 13:31:43;;;;;;;;;;;18.30;78.30;;;;;;3136281;28;19925;-26
2022/04/27 13:33:14;;;;;;;;;;;18.40;76.10;;;;;;3136413;28;19936;-24
2022/04/27 13:34:45;;;;;;;;;;;18.30;75.20;;;;;;3137640;28;19924;-26
2022/04/27 13:36:15;;;;;;;;;;;18.20;75.00;;;;;;3138583;28;19931;-25
2022/04/27 13:37:46;;;;;;;;;;;18.10;74.60;;;;;;3138948;28;19971;-27
2022/04/27 13:39:20;;;;;;;;;;;18.00;74.40;;;;;;3139196;28;19931;-25
2022/04/27 13:40:51;;;;;;;;;;;18.00;74.40;;;;;;3138873;28;19931;-26
2022/04/27 13:42:21;;;;;;;;;;;18.00;74.40;;;;;;3139056;28;20281;-25
2022/04/27 13:43:52;;;;;;;;;;;17.80;74.60;;;;;;3138684;28;20030;-26
2022/04/27 13:45:24;;;;;;;;;;;17.70;75.30;;;;;;3138829;28;19928;-24
2022/04/27 13:46:55;;;;;;;;;;;17.70;75.60;;;;;;3138797;28;19967;-24
2022/04/27 13:48:27;;;;;;;;;;;17.60;75.60;;;;;;3138578;28;19940;-26
2022/04/27 13:49:58;;;;;;;;;;;17.60;75.80;;;;;;3138569;28;20015;-27
2022/04/27 13:51:30;;;;;;;;;;;17.70;75.90;;;;;;3138763;28;20370;-28
2022/04/27 13:53:01;;;;;;;;;;;17.70;75.70;;;;;;3138641;28;19968;-26
2022/04/27 13:54:32;;;;;;;;;;;17.70;75.50;;;;;;3138803;28;19925;-26